Pioche, Nevada Weather observations

Data are for observation ending at time listed.
 Day   Time    Ave.   Ave.  Ave.  Vector   Max.   Stn.    Total    Solar   Ave.  
  of    of     Air    Rel.  Wind   Wind    Wind   Baro.  Precip.   Rad.    Soil  
Year   Day     Temp.  Hum.  Speed  Dir.    Gust   Pres.                    Temp. 
2016   (PST)    F      %     mph   deg.    mph     mb.     in.     W/m2     F   
------------------------------------------------------------------------------
 182    4:00   64.6    53    1.6   159      3.9   822.3    0.00       0    80.6
 182    4:10   64.4    54    1.4   192      2.7   822.3    0.00       0    80.6
 182    4:20   65.1    51    3.6   149      5.4   822.4    0.00       0    80.5
 182    4:30   66.0    48    4.4   142      5.5   822.4    0.00       4    80.4
 182    4:40   66.7    46    4.1   141      5.2   822.4    0.00       9    80.3
 182    4:50   67.1    46    4.0   144      5.6   822.4    0.00      22    80.3
 182    5:00   67.5    45    3.6   140      4.9   822.4    0.00      34    80.2
 182    5:10   67.7    45    2.0   132      3.1   822.4    0.00      58    80.2
 182    5:20   66.5    50    0.2   298      1.7   822.4    0.00      77    80.1
 182    5:30   66.7    50    0.4    40      1.9   822.4    0.00      78    80.1
 182    5:40   66.2    51    1.2   311      3.0   822.5    0.00      67    80.0
 182    5:50   66.4    52    0.0     0      0.0   822.5    0.00      73    80.0
 182    6:00   66.9    50    0.3   316      1.6   822.6    0.00     101    80.0
 182    6:10   67.0    53    0.1   230      0.9   822.6    0.00     139    79.9
 182    6:20   68.1    49    0.4   131      1.8   822.7    0.00     133    79.8
 182    6:30   69.6    45    1.1    92      3.1   822.7    0.00     190    79.8
 182    6:40   71.1    42    0.6   321      2.5   822.8    0.00     171    79.8
 182    6:50   71.8    41    0.3   340      1.8   822.8    0.00     181    79.7
 182    7:00   71.6    42    2.0   316      4.6   822.9    0.00     257    79.7
 182    7:10   73.4    38    1.3    84      3.8   823.0    0.00     430    79.6
 182    7:20   72.8    39    2.4    84      4.2   823.0    0.00     254    79.6
 182    7:30   74.4    37    1.2   328      4.5   823.0    0.00     526    79.5
 182    7:40   76.2    35    0.4    43      2.6   823.0    0.00     415    79.5
 182    7:50   76.9    34    0.9   313      2.4   823.1    0.00     321    79.5
 182    8:00   75.5    37    0.6   267      1.9   823.2    0.00     234    79.5
 182    8:10   75.5    34    2.8   139      8.3   823.2    0.00     279    79.5
 182    8:20   75.0    33    4.8   137      7.5   823.2    0.00     255    79.5
 182    8:30   75.0    33    5.2   131      7.6   823.3    0.00     271    79.5
 182    8:40   75.1    33    6.3   126      9.2   823.3    0.00     317    79.5
 182    8:50   75.5    33    5.1   146      9.3   823.3    0.00     368    79.5
 182    9:00   76.4    32    7.0   134     11.2   823.4    0.00     489    79.5
 182    9:10   76.6    31    8.3   141     15.1   823.5    0.00     374    79.5
 182    9:20   76.5    32    7.8   152     13.8   823.5    0.00     353    79.5
 182    9:30   76.6    32    8.0   150     14.1   823.5    0.00     329    79.5
 182    9:40   77.3    31    8.3   127     15.6   823.5    0.00     397    79.5
 182    9:50   77.2    32    8.2   139     17.5   823.5    0.00     439    79.5
 182   10:00   77.6    31    9.0   131     15.4   823.5    0.00     577    79.5
 182   10:10   77.7    31    9.8   135     16.6   823.6    0.00     537    79.6
 182   10:20   78.1    31    7.8   137     15.3   823.5    0.00     529    79.6
 182   10:30   79.5    30    8.1   134     15.9   823.5    0.00    1086    79.6
 182   10:40   81.3    29    2.5   183     10.0   823.6    0.00     497    79.6
 182   10:50   77.0    35   10.7   293     21.9   823.4    0.00     359    79.7
 182   11:00   74.3    39    7.0   300     16.1   823.4    0.00     366    79.8
 182   11:10   74.6    39    3.1   294      8.3   823.4    0.00     420    79.8
 182   11:20   78.3    33    2.0   310      6.5   823.2    0.00     745    79.9
 182   11:30   79.1    35    6.7   322     10.2   822.9    0.00     840    79.9
 182   11:40   78.8    34    5.8   318     10.4   822.8    0.00     718    79.9
 182   11:50   80.0    33    4.6   308      9.1   822.7    0.00     459    80.0
 182   12:00   79.5    32    2.2   321      6.6   822.6    0.00     165    80.0
 182   12:10   78.0    38    3.6   202      9.3   822.5    0.00     156    80.0
 182   12:20   73.9    54    6.3   145     10.4   822.4    0.00     136    80.2
 182   12:30   71.6    63    6.0   142      8.0   822.3    0.00     125    80.3
 182   12:40   71.9    60    5.9   142      8.6   822.1    0.00     125    80.3
 182   12:50   73.3    49    5.3   147      9.6   822.0    0.00     119    80.3
 182   13:00   73.2    50    5.8   138      7.8   822.0    0.00     107    80.3
 182   13:10   74.6    42    4.5   141      6.3   822.0    0.00     109    80.4
 182   13:20   75.1    48    4.1   139      5.6   822.0    0.00     123    80.4
 182   13:30   75.8    39    4.4   145      7.6   821.8    0.00     115    80.5
 182   13:40   75.3    40    6.3   145      9.3   821.7    0.00     103    80.5
 182   13:50   75.2    41    7.4   149     12.6   821.7    0.00     102    80.5
 182   14:00   74.4    44    7.3   152     11.5   821.7    0.00     102    80.6
 182   14:10   74.2    42    6.8   160     12.3   821.7    0.00      99    80.6
 182   14:20   74.4    40    7.3   155     12.3   821.6    0.00      93    80.6
 182   14:30   74.5    40    7.5   152     12.7   821.4    0.00     102    80.6
 182   14:40   74.6    40    9.6   154     17.1   821.3    0.00     113    80.6
 182   14:50   74.0    42    8.9   151     14.1   821.3    0.00     133    80.6
 182   15:00   74.4    40    7.9   179     11.9   821.2    0.00     185    80.6
 182   15:10   75.2    40    7.8   150     13.2   821.1    0.00     332    80.6
 182   15:20   76.5    38    5.2   157      9.1   820.9    0.00     415    80.6
 182   15:30   78.4    34    3.2   163      5.4   820.7    0.00     320    80.5
 182   15:40   79.2    32    2.6   138      6.0   820.6    0.00     304    80.6
 182   15:50   80.0    32    4.1   153      9.1   820.7    0.00     386    80.6
 182   16:00   79.6    31    7.1   148     11.8   820.7    0.00     423    80.5
 182   16:10   79.3    30    6.1   144     10.1   820.7    0.00     346    80.5
 182   16:20   79.0    32    5.3   152      9.3   820.7    0.00     212    80.5
 182   16:30   78.2    33    5.2   170      8.6   820.7    0.00     168    80.5
 182   16:40   78.0    34    3.0   192      5.8   820.7    0.00     154    80.5
 182   16:50   78.4    31    3.3   242      9.0   820.8    0.00     144    80.5
 182   17:00   78.4    32    2.7   300     10.8   821.1    0.00      71    80.5
 182   17:10   71.2    49   20.6   297     36.8   822.0    0.01      10    80.5
 182   17:20   62.6    73   21.3   304     35.5   822.8    0.02      15    80.7
 182   17:30   61.3    76   15.2   310     25.6   823.6    0.01      21    80.7
 182   17:40   61.3    73   13.8   308     25.7   823.8    0.00      34    80.7
 182   17:50   61.8    71   11.1   309     19.3   823.8    0.00      56    80.6
 182   18:00   61.9    70   11.9   304     22.9   823.7    0.00      44    80.5
 182   18:10   61.8    70   10.1   304     15.2   823.6    0.00      28    80.5
 182   18:20   61.8    69    7.2   298     14.8   823.4    0.00      16    80.4
 182   18:30   61.9    70    7.3   285     13.0   823.3    0.00      10    80.3
 182   18:40   62.2    67    6.2   283     12.3   823.2    0.00       8    80.3
 182   18:50   62.7    65    5.2   280      9.7   823.1    0.00       7    80.2
 182   19:00   63.0    63    3.0   281      8.8   823.0    0.00       1    80.1
 182   19:10   63.2    62    1.3   232      3.4   822.6    0.00       0    80.0
 182   19:20   63.4    62    1.9   251      5.3   822.7    0.00       0    79.9
 182   19:30   63.9    59    2.3   172      4.2   822.5    0.00       0    79.8
 182   19:40   64.3    58    2.5   161      4.0   822.5    0.00       0    79.7
 182   19:50   64.1    59    1.4   197      2.6   822.4    0.00       0    79.6
 182   20:00   64.0    58    2.0   211      4.1   822.5    0.00       0    79.5
 182   20:10   65.2    52    2.0   268      4.7   822.7    0.00       0    79.4
 182   20:20   65.9    51    1.7   262      5.1   822.8    0.00       0    79.4
 182   20:30   65.8    51    2.2   270      3.6   822.7    0.00       0    79.3
 182   20:40   65.6    52    1.7   242      4.2   822.6    0.00       0    79.2
 182   20:50   65.0    53    1.6   189      3.7   822.6    0.00       0    79.1
 182   21:00   65.4    52    6.0   144     15.1   822.9    0.00       0    79.0
 182   21:10   64.2    57    8.0   155     14.4   822.9    0.00       0    78.9
 182   21:20   64.0    58    9.0   160     17.6   822.9    0.00       0    78.9
 182   21:30   64.0    59   10.0   162     16.3   822.9    0.00       0    78.8
 182   21:40   64.1    60    9.3   163     17.5   823.0    0.00       0    78.7
 182   21:50   63.8    61    9.5   157     16.8   823.1    0.00       0    78.6
 182   22:00   63.6    64    9.0   154     18.0   823.1    0.00       0    78.6
 182   22:10   63.4    65    9.4   150     15.3   823.2    0.00       0    78.5
 182   22:20   63.2    66    9.6   151     16.4   823.0    0.00       0    78.4
 182   22:30   62.9    67    7.9   174     13.3   823.0    0.00       0    78.3
 182   22:40   63.3    65    6.4   146     12.3   823.0    0.00       0    78.3
 182   22:50   63.4    65    3.1   165      8.3   823.1    0.00       0    78.2
 182   23:00   63.3    66    1.8   326      5.5   823.1    0.00       0    78.1
 182   23:10   62.8    68    3.5   304      7.0   823.1    0.00       0    78.0
 182   23:20   61.5    70    4.7   302      7.7   823.2    0.00       0    78.0
 182   23:30   60.6    72    3.4   293      6.1   823.2    0.00       0    77.9
 182   23:40   60.5    72    1.2   288      3.5   823.0    0.00       0    77.8
 182   23:50   60.5    70    2.3   312      4.2   823.0    0.00       0    77.8
 183    0:00   60.6    70    0.5   221      1.8   823.1    0.00       0    77.7
 183    0:10   60.8    70    1.6    96      3.0   822.9    0.00       0    77.6
 183    0:20   61.0    69    0.7   111      2.9   822.6    0.00       0    77.5
 183    0:30   60.5    71    3.8   144      5.8   822.4    0.00       0    77.5
 183    0:40   60.8    72    3.1   129      5.7   822.4    0.00       0    77.4
 183    0:50   62.5    66    3.0    81      8.3   822.5    0.00       0    77.4
 183    1:00   61.4    70    3.2   101      5.3   822.4    0.00       0    77.3
 183    1:10   61.1    70    3.3   120      5.4   822.3    0.00       0    77.2
 183    1:20   61.0    72    0.3    54      1.5   822.3    0.00       0    77.2
 183    1:30   60.5    73    1.4    86      4.2   822.3    0.00       0    77.1
 183    1:40   60.9    71    2.4    70      3.9   822.4    0.00       0    77.1
 183    1:50   60.8    73    2.0   288      5.7   822.6    0.00       0    77.0
 183    2:00   59.5    77    3.5   277      6.4   822.7    0.00       0    76.9
 183    2:10   59.1    78    2.9   280      5.0   822.6    0.00       0    76.9
 183    2:20   58.9    77    3.6   286      5.4   822.6    0.00       0    76.9
 183    2:30   59.0    77    2.5   276      4.2   822.4    0.00       0    76.8
 183    2:40   59.2    76    0.8   329      1.6   822.3    0.00       0    76.8
 183    2:50   59.6    75    0.2   328      1.3   822.3    0.00       0    76.7
 183    3:00   59.1    76    1.6   126      2.8   822.3    0.00       0    76.7
 183    3:10   58.6    80    2.3   157      4.2   822.2    0.00       0    76.6
 183    3:20   58.8    77    4.2   149      5.3   822.1    0.00       0    76.6
 183    3:30   59.3    75    3.1   143      4.2   822.0    0.00       0    76.5
 183    3:40   59.4    76    2.0   144      3.4   822.0    0.00       0    76.4
 183    3:50   59.1    80    1.3   161      2.1   822.0    0.00       0    76.4

Return to Pioche, Nevada graphs page.


Western Regional Climate Center,wrcc@dri.edu